Time;durP1;ratioP1;P1;durP2;ratioP2;P2;SDS_P1;SDS_P2;PMS_P1;PMS_P2;Temp;Humidity;BMP_temperature;BMP_pressure;BME280_temperature;BME280_humidity;BME280_pressure;Samples;Min_cycle;Max_cycle;Signal;HPM_P1;HPM_P2
2023/06/25 00:01:23;;;;;;;10.90;6.47;;;23.20;71.50;;;;;;5119122;28;20102;-75
2023/06/25 00:03:50;;;;;;;10.25;6.93;;;23.20;71.30;;;;;;5137010;28;20030;-76
2023/06/25 00:06:15;;;;;;;9.90;6.82;;;23.20;71.30;;;;;;5119191;28;20060;-76
2023/06/25 00:08:41;;;;;;;9.82;6.57;;;23.20;71.50;;;;;;5102006;28;20020;-76
2023/06/25 00:11:06;;;;;;;10.77;7.68;;;23.10;71.40;;;;;;5119019;28;20520;-76
2023/06/25 00:13:32;;;;;;;11.70;7.47;;;23.10;71.30;;;;;;5118966;28;20046;-76
2023/06/25 00:15:58;;;;;;;11.00;7.50;;;23.00;71.30;;;;;;5118575;28;20036;-76
2023/06/25 00:18:26;;;;;;;9.88;7.47;;;23.10;71.40;;;;;;5101814;28;20043;-76
2023/06/25 00:20:53;;;;;;;11.43;7.53;;;23.00;71.70;;;;;;5136665;28;20026;-76
2023/06/25 00:23:18;;;;;;;11.38;7.88;;;23.00;71.80;;;;;;5136554;28;20035;-76
2023/06/25 00:25:44;;;;;;;10.82;7.70;;;22.90;71.60;;;;;;5136552;28;20020;-76
2023/06/25 00:28:10;;;;;;;11.07;8.10;;;22.90;71.70;;;;;;5136557;28;20034;-76
2023/06/25 00:30:36;;;;;;;11.43;8.57;;;22.90;71.80;;;;;;5101659;28;20034;-76
2023/06/25 00:33:02;;;;;;;11.25;8.23;;;22.90;71.90;;;;;;5136424;28;20024;-76
2023/06/25 00:35:38;;;;;;;13.65;7.88;;;22.90;72.00;;;;;;5136300;28;20027;-76
2023/06/25 00:38:04;;;;;;;12.45;8.13;;;22.80;72.00;;;;;;5136443;28;20031;-76
2023/06/25 00:40:30;;;;;;;13.30;8.60;;;22.80;72.00;;;;;;5101434;28;20062;-76
2023/06/25 00:42:58;;;;;;;12.88;8.77;;;22.70;72.00;;;;;;5084582;28;20039;-77
2023/06/25 00:45:27;;;;;;;14.77;8.95;;;22.60;72.10;;;;;;5101658;28;20034;-76
2023/06/25 00:47:53;;;;;;;13.23;9.18;;;22.50;72.30;;;;;;5136188;28;20019;-76
2023/06/25 00:50:21;;;;;;;12.27;8.27;;;22.50;72.70;;;;;;5118341;28;20032;-76
2023/06/25 00:52:51;;;;;;;11.15;8.43;;;22.50;72.80;;;;;;5118327;28;20028;-76
2023/06/25 00:55:18;;;;;;;12.73;9.00;;;22.50;72.70;;;;;;5135831;28;20043;-76
2023/06/25 00:57:44;;;;;;;11.68;8.90;;;22.50;72.60;;;;;;5117951;28;20031;-76
2023/06/25 01:00:14;;;;;;;12.85;8.40;;;22.50;72.60;;;;;;5136049;28;20098;-75
2023/06/25 01:03:03;;;;;;;13.85;8.32;;;22.50;72.50;;;;;;5135851;28;20034;-75
2023/06/25 01:05:39;;;;;;;13.55;9.23;;;22.50;72.40;;;;;;5135818;28;20024;-76
2023/06/25 01:08:10;;;;;;;13.07;9.82;;;22.40;72.70;;;;;;5135974;28;20087;-76
2023/06/25 01:10:38;;;;;;;13.13;9.85;;;22.30;72.90;;;;;;5135792;28;20099;-76
2023/06/25 01:13:04;;;;;;;11.48;9.32;;;22.30;72.90;;;;;;5135748;28;20039;-76
2023/06/25 01:15:30;;;;;;;13.55;9.68;;;22.30;72.90;;;;;;5117589;28;20035;-76
2023/06/25 01:17:57;;;;;;;15.40;9.50;;;22.30;72.80;;;;;;5117466;28;20398;-76
2023/06/25 01:20:26;;;;;;;13.18;9.13;;;22.20;72.80;;;;;;5135555;28;20020;-75
2023/06/25 01:22:55;;;;;;;13.00;8.88;;;22.20;72.70;;;;;;5117471;28;20083;-76
2023/06/25 01:25:21;;;;;;;14.13;9.27;;;22.20;73.00;;;;;;5117421;28;20024;-76
2023/06/25 01:27:47;;;;;;;13.45;9.40;;;22.10;73.10;;;;;;5116776;28;20035;-76
2023/06/25 01:30:14;;;;;;;12.15;9.07;;;22.10;73.20;;;;;;5117278;28;20028;-76
2023/06/25 01:32:41;;;;;;;15.38;9.02;;;22.10;73.40;;;;;;5117182;28;20016;-76
2023/06/25 01:35:10;;;;;;;12.45;9.15;;;22.00;73.50;;;;;;5117074;28;20024;-76
2023/06/25 01:37:36;;;;;;;12.40;9.68;;;21.90;73.70;;;;;;5117728;28;20039;-76
2023/06/25 01:40:02;;;;;;;12.73;9.27;;;21.90;73.70;;;;;;5117278;28;20023;-76
2023/06/25 01:42:27;;;;;;;12.27;9.05;;;21.90;73.90;;;;;;5134974;28;20020;-76
2023/06/25 01:44:53;;;;;;;13.95;9.82;;;21.90;73.90;;;;;;5100094;28;20035;-76
2023/06/25 01:47:19;;;;;;;12.40;9.07;;;21.90;74.20;;;;;;5135003;28;20035;-75
2023/06/25 01:49:44;;;;;;;13.85;8.65;;;21.90;74.10;;;;;;5117006;28;20020;-76
2023/06/25 01:52:10;;;;;;;11.85;8.73;;;21.90;74.20;;;;;;5117026;28;20031;-76
2023/06/25 01:54:35;;;;;;;11.93;8.77;;;21.90;74.40;;;;;;5116847;28;20111;-75
2023/06/25 01:57:02;;;;;;;12.00;8.82;;;21.90;74.50;;;;;;5099798;28;20035;-76
2023/06/25 01:59:28;;;;;;;14.60;9.00;;;21.80;74.80;;;;;;5116732;28;20087;-76
2023/06/25 02:01:54;;;;;;;12.25;8.65;;;21.80;74.90;;;;;;5099834;28;20035;-76
2023/06/25 02:04:20;;;;;;;11.07;8.68;;;21.70;75.00;;;;;;5099584;28;20036;-76
2023/06/25 02:06:46;;;;;;;10.40;8.63;;;21.70;74.90;;;;;;5134645;28;20034;-76
2023/06/25 02:09:14;;;;;;;11.77;8.18;;;21.70;74.80;;;;;;5134571;28;20020;-76
2023/06/25 02:11:40;;;;;;;13.65;9.35;;;21.70;74.80;;;;;;5099905;28;20016;-76
2023/06/25 02:14:06;;;;;;;15.05;9.43;;;21.60;75.10;;;;;;5134494;28;20034;-76
2023/06/25 02:16:32;;;;;;;11.05;8.80;;;21.60;75.50;;;;;;5134464;28;20486;-76
2023/06/25 02:18:58;;;;;;;11.57;9.60;;;21.60;75.70;;;;;;5099754;28;20036;-75
2023/06/25 02:21:24;;;;;;;11.25;8.93;;;21.60;75.70;;;;;;5134368;28;20020;-75
2023/06/25 02:23:50;;;;;;;13.18;8.20;;;21.50;75.70;;;;;;5134362;28;20016;-75
2023/06/25 02:26:15;;;;;;;13.10;8.82;;;21.40;76.00;;;;;;5116389;28;20020;-76
2023/06/25 02:28:41;;;;;;;11.50;8.43;;;21.40;76.00;;;;;;5134442;28;20113;-76
2023/06/25 02:31:07;;;;;;;12.68;9.43;;;21.40;75.70;;;;;;5116114;28;20020;-75
2023/06/25 02:33:32;;;;;;;12.25;9.25;;;21.20;76.80;;;;;;5099294;28;20037;-76
2023/06/25 02:35:58;;;;;;;12.00;8.63;;;21.10;76.50;;;;;;5134178;28;20031;-75
2023/06/25 02:38:23;;;;;;;14.10;9.13;;;21.10;76.60;;;;;;5133740;28;20057;-76
2023/06/25 02:40:49;;;;;;;13.27;9.35;;;21.20;76.50;;;;;;5115674;28;20031;-76
2023/06/25 02:43:15;;;;;;;13.55;8.93;;;21.10;76.60;;;;;;5116207;28;20047;-75
2023/06/25 02:45:40;;;;;;;12.75;9.48;;;21.10;76.60;;;;;;5134008;28;20024;-76
2023/06/25 02:48:06;;;;;;;12.30;9.15;;;21.20;76.80;;;;;;5134022;28;20034;-75
2023/06/25 02:50:32;;;;;;;11.23;8.55;;;21.10;76.60;;;;;;5134015;28;20052;-76
2023/06/25 02:52:59;;;;;;;15.60;9.30;;;21.20;76.70;;;;;;5116115;28;20024;-76
2023/06/25 02:55:25;;;;;;;14.43;9.10;;;21.20;76.70;;;;;;5133772;28;20043;-76
2023/06/25 02:57:50;;;;;;;13.25;8.88;;;21.20;76.80;;;;;;5099040;28;20074;-75
2023/06/25 03:00:16;;;;;;;14.88;9.57;;;21.20;76.90;;;;;;5115895;28;20073;-75
2023/06/25 03:02:42;;;;;;;12.45;8.90;;;21.20;77.00;;;;;;5115912;28;20034;-76
2023/06/25 03:05:08;;;;;;;12.93;8.88;;;21.20;76.90;;;;;;5133762;28;20087;-76
2023/06/25 03:07:33;;;;;;;11.60;9.15;;;21.20;76.70;;;;;;5099062;28;20030;-76
2023/06/25 03:09:59;;;;;;;14.68;9.80;;;21.30;77.10;;;;;;5133816;28;20536;-75
2023/06/25 03:12:24;;;;;;;12.93;9.55;;;21.20;77.20;;;;;;5098944;28;20023;-75
2023/06/25 03:14:50;;;;;;;12.25;8.90;;;21.10;77.40;;;;;;5133766;28;20113;-75
2023/06/25 03:17:16;;;;;;;16.85;9.80;;;21.10;77.70;;;;;;5133737;28;20031;-76
2023/06/25 03:19:41;;;;;;;12.23;8.52;;;21.10;77.70;;;;;;5133697;28;20027;-75
2023/06/25 03:22:07;;;;;;;12.23;9.23;;;21.10;77.50;;;;;;5098754;28;20032;-75
2023/06/25 03:24:32;;;;;;;13.98;9.63;;;21.10;77.70;;;;;;5098906;28;20047;-76
2023/06/25 03:26:58;;;;;;;12.38;9.07;;;21.00;77.80;;;;;;5133661;28;20041;-76
2023/06/25 03:29:24;;;;;;;11.93;8.98;;;20.90;78.20;;;;;;5115859;28;20028;-75
2023/06/25 03:31:50;;;;;;;12.80;9.32;;;20.90;78.50;;;;;;5098729;28;20023;-75
2023/06/25 03:34:16;;;;;;;14.02;9.27;;;21.00;78.30;;;;;;5115676;28;20050;-75
2023/06/25 03:36:41;;;;;;;13.20;9.45;;;20.80;78.40;;;;;;5115588;28;20032;-75
2023/06/25 03:39:07;;;;;;;12.90;9.88;;;20.80;78.90;;;;;;5098628;28;20016;-75
2023/06/25 03:41:32;;;;;;;11.85;8.93;;;20.80;79.10;;;;;;5098756;28;20474;-75
2023/06/25 03:43:58;;;;;;;13.75;9.45;;;20.90;78.90;;;;;;5115479;28;20020;-75
2023/06/25 03:46:24;;;;;;;11.93;9.20;;;20.90;78.80;;;;;;5133493;28;20046;-76
2023/06/25 03:48:49;;;;;;;15.57;8.93;;;20.80;79.00;;;;;;5115557;28;20039;-75
2023/06/25 03:51:15;;;;;;;11.65;9.90;;;20.80;79.70;;;;;;5083880;28;20527;-75
2023/06/25 03:53:41;;;;;;;14.38;9.60;;;20.90;78.80;;;;;;5137119;28;20049;-76
2023/06/25 03:56:07;;;;;;;12.57;9.25;;;20.80;78.90;;;;;;5137220;28;20041;-75
2023/06/25 03:58:36;;;;;;;12.93;9.88;;;20.80;79.10;;;;;;5137049;28;20057;-75
2023/06/25 04:01:02;;;;;;;13.43;9.30;;;20.80;79.30;;;;;;5119024;28;20046;-75
2023/06/25 04:03:28;;;;;;;12.25;9.80;;;20.70;79.60;;;;;;5102004;28;20024;-75
2023/06/25 04:05:53;;;;;;;12.32;9.68;;;20.80;79.60;;;;;;5119111;28;20091;-75
2023/06/25 04:08:19;;;;;;;13.85;8.88;;;20.80;79.40;;;;;;5119072;28;20038;-76
2023/06/25 04:10:45;;;;;;;15.23;9.40;;;20.90;79.30;;;;;;5137079;28;20024;-75
2023/06/25 04:13:10;;;;;;;19.02;10.13;;;20.80;79.20;;;;;;5118960;28;20170;-75
2023/06/25 04:15:36;;;;;;;14.55;10.77;;;20.80;79.30;;;;;;5118869;28;20028;-75
2023/06/25 04:18:02;;;;;;;13.25;10.63;;;20.80;79.50;;;;;;5136791;28;20059;-75
2023/06/25 04:20:28;;;;;;;14.40;11.57;;;20.80;79.70;;;;;;5118729;28;20035;-75
2023/06/25 04:22:54;;;;;;;15.63;11.80;;;20.80;80.00;;;;;;5136728;28;20032;-76
2023/06/25 04:25:20;;;;;;;14.38;11.10;;;20.80;80.20;;;;;;5136549;28;20027;-76
2023/06/25 04:27:46;;;;;;;17.20;11.10;;;20.80;80.30;;;;;;5101644;28;20024;-75
2023/06/25 04:30:13;;;;;;;13.23;10.65;;;20.80;80.40;;;;;;5101752;28;20035;-75
2023/06/25 04:32:39;;;;;;;14.85;10.77;;;20.80;80.50;;;;;;5136446;28;20027;-75
2023/06/25 04:35:05;;;;;;;14.45;11.95;;;20.80;80.80;;;;;;5136387;28;20042;-75
2023/06/25 04:37:31;;;;;;;16.27;11.82;;;20.80;80.60;;;;;;5118705;28;20087;-75
2023/06/25 04:39:56;;;;;;;14.00;11.10;;;20.90;80.60;;;;;;5118543;28;20027;-76
2023/06/25 04:42:22;;;;;;;12.48;10.48;;;20.90;80.70;;;;;;5118252;28;20028;-75
2023/06/25 04:44:48;;;;;;;14.32;11.57;;;20.90;80.80;;;;;;5136320;28;20059;-77
2023/06/25 04:47:13;;;;;;;11.88;9.88;;;20.90;81.10;;;;;;5136235;28;20020;-77
2023/06/25 04:49:39;;;;;;;15.63;10.07;;;20.90;81.10;;;;;;5118334;28;20024;-77
2023/06/25 04:52:05;;;;;;;12.07;9.82;;;20.90;81.30;;;;;;5101406;28;20518;-77
2023/06/25 04:54:30;;;;;;;17.73;10.43;;;21.00;81.60;;;;;;5117788;28;20055;-77
2023/06/25 04:56:56;;;;;;;15.25;10.80;;;21.00;81.30;;;;;;5136051;28;20039;-77
2023/06/25 04:59:22;;;;;;;14.93;10.57;;;21.00;81.50;;;;;;5100990;28;20040;-77
2023/06/25 05:01:47;;;;;;;13.85;10.90;;;21.00;81.50;;;;;;5117137;28;20024;-77
2023/06/25 05:04:13;;;;;;;15.25;11.15;;;21.10;81.60;;;;;;5100736;28;20107;-77
2023/06/25 05:06:38;;;;;;;15.88;11.02;;;21.10;81.70;;;;;;5100990;28;20028;-77
2023/06/25 05:09:04;;;;;;;16.80;11.38;;;21.10;81.60;;;;;;5135862;28;20043;-77
2023/06/25 05:11:30;;;;;;;14.70;11.32;;;21.20;81.80;;;;;;5117682;28;20028;-77
2023/06/25 05:13:55;;;;;;;17.20;12.07;;;21.10;81.70;;;;;;5135716;28;20047;-76
2023/06/25 05:16:21;;;;;;;18.00;12.13;;;21.10;82.30;;;;;;5117778;28;20038;-77
2023/06/25 05:18:46;;;;;;;15.80;11.57;;;21.10;82.30;;;;;;5135597;28;20043;-76
2023/06/25 05:21:12;;;;;;;14.73;11.45;;;21.10;82.20;;;;;;5135548;28;20107;-76
2023/06/25 05:23:42;;;;;;;16.38;12.00;;;21.20;82.10;;;;;;5100762;28;20083;-77
2023/06/25 05:26:07;;;;;;;17.67;12.32;;;21.20;82.10;;;;;;5117987;28;20039;-77
2023/06/25 05:28:33;;;;;;;16.00;12.30;;;21.20;82.10;;;;;;5135532;28;20016;-77
2023/06/25 05:30:58;;;;;;;15.60;11.60;;;21.30;82.40;;;;;;5117375;28;20031;-76
2023/06/25 05:33:24;;;;;;;16.55;12.13;;;21.30;82.20;;;;;;5100278;28;20045;-77
2023/06/25 05:35:51;;;;;;;19.52;12.75;;;21.20;82.00;;;;;;5135270;28;20035;-77
2023/06/25 05:38:16;;;;;;;15.98;12.02;;;21.20;82.20;;;;;;5117307;28;20054;-77
2023/06/25 05:40:42;;;;;;;18.02;12.35;;;21.30;83.10;;;;;;5100190;28;20032;-77
2023/06/25 05:43:08;;;;;;;17.48;13.02;;;21.30;82.20;;;;;;5100285;28;20043;-77
2023/06/25 05:45:33;;;;;;;18.20;12.27;;;21.40;82.10;;;;;;5135182;28;20031;-77
2023/06/25 05:47:59;;;;;;;20.60;13.63;;;21.40;82.10;;;;;;5100153;28;20039;-77
2023/06/25 05:50:25;;;;;;;17.85;13.60;;;21.50;82.10;;;;;;5100009;28;20032;-77
2023/06/25 05:52:51;;;;;;;19.52;13.95;;;21.50;82.40;;;;;;5117175;28;20026;-77
2023/06/25 05:55:17;;;;;;;18.55;14.77;;;21.60;82.20;;;;;;5116640;28;20051;-78
2023/06/25 05:57:42;;;;;;;19.88;14.25;;;21.60;81.80;;;;;;5116929;28;20031;-77
2023/06/25 06:00:08;;;;;;;20.38;14.98;;;21.70;81.70;;;;;;5134663;28;20023;-77
2023/06/25 06:02:34;;;;;;;20.30;14.90;;;21.80;81.80;;;;;;5134739;28;20016;-77
2023/06/25 06:05:00;;;;;;;20.65;15.50;;;21.80;81.60;;;;;;5134758;28;20035;-77
2023/06/25 06:07:26;;;;;;;19.73;14.80;;;21.90;81.70;;;;;;5099891;28;20099;-77
2023/06/25 06:09:51;;;;;;;20.65;16.08;;;21.90;81.30;;;;;;5116643;28;20122;-77
2023/06/25 06:12:17;;;;;;;21.48;15.05;;;21.90;80.70;;;;;;5116738;28;20024;-77
2023/06/25 06:14:43;;;;;;;22.25;15.30;;;22.00;80.60;;;;;;5116391;28;20032;-77
2023/06/25 06:17:09;;;;;;;21.23;16.50;;;22.10;80.30;;;;;;5116682;28;20027;-79
2023/06/25 06:19:35;;;;;;;21.33;15.85;;;22.10;80.40;;;;;;5116518;28;20081;-77
2023/06/25 06:22:01;;;;;;;20.80;15.65;;;22.10;79.70;;;;;;5116412;28;20028;-78
2023/06/25 06:24:27;;;;;;;22.85;15.73;;;22.10;79.30;;;;;;5082683;28;20036;-77
2023/06/25 06:26:53;;;;;;;21.08;16.75;;;22.10;78.80;;;;;;5116494;28;20020;-77
2023/06/25 06:29:19;;;;;;;20.95;16.27;;;22.20;78.90;;;;;;5099420;28;20026;-78
2023/06/25 06:31:45;;;;;;;19.52;15.73;;;22.30;78.60;;;;;;5116252;28;20019;-77
2023/06/25 06:34:10;;;;;;;20.85;14.13;;;22.40;78.40;;;;;;5116201;28;20049;-77
2023/06/25 06:36:36;;;;;;;18.65;14.02;;;22.40;77.70;;;;;;5116167;28;20024;-77
2023/06/25 06:39:02;;;;;;;18.63;13.65;;;22.50;77.70;;;;;;5134199;28;20019;-78
2023/06/25 06:41:28;;;;;;;18.63;13.93;;;22.50;77.00;;;;;;5134133;28;20083;-79
2023/06/25 06:43:53;;;;;;;16.83;12.40;;;22.50;76.70;;;;;;5099267;28;20043;-77
2023/06/25 06:46:19;;;;;;;18.73;13.90;;;22.50;76.90;;;;;;5099122;28;20035;-78
2023/06/25 06:48:45;;;;;;;18.83;13.98;;;22.70;77.60;;;;;;5099314;28;20032;-78
2023/06/25 06:51:10;;;;;;;19.08;14.25;;;22.70;77.20;;;;;;5116091;28;20043;-78
2023/06/25 06:53:36;;;;;;;17.92;14.40;;;22.80;77.30;;;;;;5115957;28;20028;-78
2023/06/25 06:56:01;;;;;;;18.35;13.27;;;22.90;77.60;;;;;;5115925;28;20072;-77
2023/06/25 06:58:27;;;;;;;18.85;13.05;;;23.00;77.90;;;;;;5116172;28;20027;-77
2023/06/25 07:00:53;;;;;;;17.30;13.15;;;23.10;77.60;;;;;;5099069;28;20532;-77
2023/06/25 07:03:19;;;;;;;17.17;12.70;;;23.10;77.20;;;;;;5134003;28;20028;-77
2023/06/25 07:05:44;;;;;;;17.67;12.70;;;23.20;76.80;;;;;;5099070;28;20039;-78
2023/06/25 07:08:10;;;;;;;16.80;12.13;;;23.30;76.30;;;;;;5133806;28;20102;-77
2023/06/25 07:10:36;;;;;;;15.90;11.70;;;23.30;75.80;;;;;;5115751;28;20091;-76
2023/06/25 07:13:02;;;;;;;16.88;11.70;;;23.40;75.70;;;;;;5133828;28;20027;-76
2023/06/25 07:15:27;;;;;;;15.52;11.23;;;23.50;75.60;;;;;;5133742;28;20028;-76
2023/06/25 07:17:53;;;;;;;14.43;10.40;;;23.60;75.10;;;;;;5115749;28;20055;-77
2023/06/25 07:20:19;;;;;;;17.25;12.13;;;23.70;74.00;;;;;;5115847;28;20028;-77
2023/06/25 07:22:44;;;;;;;16.27;11.35;;;23.70;73.10;;;;;;5133744;28;20024;-76
2023/06/25 07:25:10;;;;;;;17.20;12.07;;;23.70;73.10;;;;;;5099124;28;20055;-76
2023/06/25 07:27:36;;;;;;;18.02;11.88;;;23.70;72.50;;;;;;5137762;28;20035;-76
2023/06/25 07:30:03;;;;;;;16.17;11.50;;;23.70;72.30;;;;;;5137619;28;20015;-77
2023/06/25 07:32:29;;;;;;;15.18;11.05;;;23.80;72.30;;;;;;5137696;28;20024;-75
2023/06/25 07:34:57;;;;;;;15.70;10.43;;;23.90;71.60;;;;;;5137582;28;20031;-76
2023/06/25 07:37:23;;;;;;;14.40;10.82;;;23.90;71.40;;;;;;5119545;28;20077;-76
2023/06/25 07:39:48;;;;;;;15.38;10.50;;;24.00;72.20;;;;;;5137514;28;20027;-76
2023/06/25 07:42:14;;;;;;;14.27;9.98;;;24.10;71.30;;;;;;5119450;28;20049;-76
2023/06/25 07:44:39;;;;;;;15.95;8.95;;;24.20;71.00;;;;;;5119395;28;20034;-77
2023/06/25 07:47:05;;;;;;;13.07;8.75;;;24.30;71.50;;;;;;5119536;28;20027;-76
2023/06/25 07:49:31;;;;;;;12.68;9.10;;;24.40;68.20;;;;;;5119384;28;20039;-76
2023/06/25 07:51:56;;;;;;;15.00;8.80;;;24.40;66.60;;;;;;5119300;28;20027;-75
2023/06/25 07:54:22;;;;;;;12.20;8.00;;;24.50;68.20;;;;;;5137099;28;20059;-76
2023/06/25 07:56:48;;;;;;;15.13;8.65;;;24.50;65.90;;;;;;5119225;28;20039;-76
2023/06/25 07:59:15;;;;;;;13.40;9.02;;;24.60;67.10;;;;;;5102214;28;20047;-76
2023/06/25 08:01:40;;;;;;;14.23;9.75;;;24.70;67.80;;;;;;5137133;28;20023;-76
2023/06/25 08:04:06;;;;;;;13.07;9.27;;;24.80;67.90;;;;;;5101940;28;20024;-76
2023/06/25 08:06:32;;;;;;;12.63;8.80;;;24.90;66.50;;;;;;5136916;28;20023;-76
2023/06/25 08:08:58;;;;;;;15.32;9.18;;;24.90;66.40;;;;;;5136880;28;20046;-76
2023/06/25 08:11:24;;;;;;;12.55;7.97;;;24.90;66.40;;;;;;5118977;28;20030;-76
2023/06/25 08:13:50;;;;;;;13.75;9.35;;;25.00;67.10;;;;;;5118836;28;20031;-76
2023/06/25 08:16:15;;;;;;;11.65;8.40;;;25.20;66.80;;;;;;5136815;28;20016;-76
2023/06/25 08:18:41;;;;;;;13.50;8.02;;;25.30;67.00;;;;;;5118952;28;20069;-76
2023/06/25 08:21:07;;;;;;;13.57;7.90;;;25.30;65.70;;;;;;5101747;28;20036;-77
2023/06/25 08:23:32;;;;;;;11.38;7.72;;;25.30;65.40;;;;;;5136882;28;20051;-76
2023/06/25 08:25:58;;;;;;;12.95;8.18;;;25.30;65.80;;;;;;5136591;28;20032;-76
2023/06/25 08:28:24;;;;;;;10.70;6.80;;;25.40;65.00;;;;;;5118833;28;20024;-76
2023/06/25 08:30:50;;;;;;;9.80;6.75;;;25.50;63.10;;;;;;5101633;28;20095;-76
2023/06/25 08:33:16;;;;;;;9.68;6.82;;;25.50;63.10;;;;;;5118448;28;20035;-76
2023/06/25 08:35:42;;;;;;;10.88;6.57;;;25.50;62.90;;;;;;5118754;28;20024;-76
2023/06/25 08:38:08;;;;;;;9.95;6.80;;;25.60;64.30;;;;;;5101567;28;20024;-76
2023/06/25 08:40:40;;;;;;;10.77;6.70;;;25.70;62.80;;;;;;5136499;28;20409;-76
2023/06/25 08:43:06;;;;;;;8.40;6.18;;;25.70;64.00;;;;;;5136377;28;20027;-76
2023/06/25 08:45:31;;;;;;;10.20;6.68;;;25.80;64.50;;;;;;5101481;28;20530;-76
2023/06/25 08:48:02;;;;;;;8.75;6.65;;;25.80;63.50;;;;;;5118362;28;20027;-76
2023/06/25 08:50:30;;;;;;;7.85;5.25;;;25.90;61.50;;;;;;5118330;28;20362;-76
2023/06/25 08:52:56;;;;;;;10.98;6.03;;;25.90;62.70;;;;;;5101520;28;20024;-76
2023/06/25 08:55:24;;;;;;;9.23;6.22;;;26.00;63.20;;;;;;5101020;28;20048;-76
2023/06/25 08:57:50;;;;;;;8.70;6.38;;;26.10;64.60;;;;;;5118152;28;20039;-76
2023/06/25 09:00:16;;;;;;;8.23;5.55;;;26.20;64.90;;;;;;5136077;28;20204;-77
2023/06/25 09:02:42;;;;;;;7.80;5.60;;;26.30;65.00;;;;;;5135978;28;20024;-76
2023/06/25 09:05:13;;;;;;;8.77;5.93;;;26.40;63.00;;;;;;5117755;28;20439;-76
2023/06/25 09:07:46;;;;;;;7.32;5.30;;;26.40;61.80;;;;;;5117828;28;20050;-76
2023/06/25 09:10:12;;;;;;;6.75;5.18;;;26.40;61.60;;;;;;5117989;28;20043;-76
2023/06/25 09:12:38;;;;;;;9.23;5.78;;;26.50;61.80;;;;;;5117659;28;20016;-76
2023/06/25 09:15:06;;;;;;;6.50;5.18;;;26.60;63.40;;;;;;5117642;28;20100;-76
2023/06/25 09:17:31;;;;;;;7.10;5.07;;;26.70;64.10;;;;;;5135672;28;20055;-76
2023/06/25 09:20:07;;;;;;;7.47;5.13;;;26.70;62.60;;;;;;5135596;28;20028;-77
2023/06/25 09:22:33;;;;;;;7.22;4.95;;;26.70;62.40;;;;;;5117564;28;20550;-76
2023/06/25 09:25:00;;;;;;;7.18;5.10;;;26.70;62.40;;;;;;5135430;28;20042;-76
2023/06/25 09:27:25;;;;;;;8.60;5.32;;;26.80;62.50;;;;;;5117446;28;20061;-76
2023/06/25 09:29:56;;;;;;;6.32;5.40;;;26.80;61.40;;;;;;5100442;28;20087;-76
2023/06/25 09:32:22;;;;;;;7.72;5.40;;;26.80;59.50;;;;;;5135423;28;20011;-76
2023/06/25 09:34:47;;;;;;;9.32;5.03;;;26.90;61.70;;;;;;5117303;28;20028;-76
2023/06/25 09:37:13;;;;;;;8.70;5.57;;;27.00;62.00;;;;;;5117368;28;20043;-76
2023/06/25 09:39:39;;;;;;;8.40;5.55;;;27.10;60.50;;;;;;5100273;28;20091;-76
2023/06/25 09:42:06;;;;;;;7.38;5.90;;;27.20;61.80;;;;;;5117137;28;20103;-76
2023/06/25 09:44:34;;;;;;;8.70;5.68;;;27.20;62.30;;;;;;5135091;28;20023;-76
2023/06/25 09:47:06;;;;;;;7.75;5.68;;;27.20;61.60;;;;;;5135069;28;20022;-76
2023/06/25 09:49:32;;;;;;;7.13;5.35;;;27.30;60.40;;;;;;5116534;28;20019;-76
2023/06/25 09:52:04;;;;;;;6.40;5.00;;;27.30;62.50;;;;;;5117032;28;20023;-76
2023/06/25 09:54:31;;;;;;;6.40;4.68;;;27.40;61.90;;;;;;5116740;28;20051;-76
2023/06/25 09:57:00;;;;;;;6.85;4.97;;;27.40;61.30;;;;;;5116929;28;20028;-76
2023/06/25 09:59:27;;;;;;;7.95;4.90;;;27.50;60.30;;;;;;5116840;28;20020;-76
2023/06/25 10:01:53;;;;;;;8.07;5.18;;;27.50;60.60;;;;;;5099850;28;20030;-76
2023/06/25 10:04:19;;;;;;;6.43;4.93;;;27.60;60.70;;;;;;5116666;28;20041;-76
2023/06/25 10:06:46;;;;;;;6.82;5.05;;;27.80;61.50;;;;;;5116705;28;20095;-76
2023/06/25 10:09:12;;;;;;;6.28;5.00;;;27.80;59.70;;;;;;5116843;28;20016;-77
2023/06/25 10:11:47;;;;;;;6.57;4.60;;;27.80;59.20;;;;;;5099671;28;20077;-76
2023/06/25 10:14:16;;;;;;;6.72;4.65;;;27.80;60.00;;;;;;5101143;28;20027;-76
2023/06/25 10:16:49;;;;;;;6.85;4.75;;;27.90;60.90;;;;;;5116628;28;20387;-76
2023/06/25 10:19:23;;;;;;;7.38;4.90;;;28.10;60.20;;;;;;5134580;28;20020;-76
2023/06/25 10:22:16;;;;;;;6.15;4.28;;;28.10;60.20;;;;;;5116460;28;20044;-77
2023/06/25 10:24:43;;;;;;;6.00;4.47;;;28.10;58.30;;;;;;5134407;28;20020;-76
2023/06/25 10:27:24;;;;;;;6.72;4.32;;;28.10;57.70;;;;;;5116452;28;20045;-76
2023/06/25 10:29:50;;;;;;;5.13;4.40;;;28.20;55.50;;;;;;5116315;28;20028;-76
2023/06/25 10:32:27;;;;;;;5.53;4.43;;;28.20;55.50;;;;;;5134284;28;20019;-76
2023/06/25 10:35:00;;;;;;;6.45;4.25;;;28.30;58.80;;;;;;5134140;28;20057;-76
2023/06/25 10:37:30;;;;;;;8.13;4.65;;;28.40;56.90;;;;;;5116240;28;20015;-76
2023/06/25 10:40:07;;;;;;;5.43;4.55;;;28.50;56.10;;;;;;5134184;28;20038;-76
2023/06/25 10:42:33;;;;;;;6.43;4.00;;;28.50;56.80;;;;;;5134091;28;20031;-77
2023/06/25 10:45:03;;;;;;;5.82;4.35;;;28.60;55.60;;;;;;5116069;28;20027;-76
2023/06/25 10:47:29;;;;;;;7.60;4.82;;;28.60;58.30;;;;;;5134074;28;20378;-76
2023/06/25 10:49:55;;;;;;;5.45;4.32;;;28.70;58.70;;;;;;5134045;28;20028;-76
2023/06/25 10:52:21;;;;;;;6.35;4.40;;;28.70;54.00;;;;;;5116011;28;20016;-76
2023/06/25 10:54:47;;;;;;;5.22;4.25;;;28.70;55.50;;;;;;5133828;28;20051;-76
2023/06/25 10:57:14;;;;;;;4.97;3.95;;;28.80;55.90;;;;;;5134007;28;20031;-76
2023/06/25 10:59:43;;;;;;;5.65;4.10;;;28.80;53.50;;;;;;5115307;28;20024;-77
2023/06/25 11:02:19;;;;;;;4.80;3.90;;;28.70;53.20;;;;;;5133704;28;20050;-76
2023/06/25 11:04:52;;;;;;;5.78;4.30;;;28.70;50.50;;;;;;5115809;28;20020;-76
2023/06/25 11:07:23;;;;;;;6.30;4.40;;;28.70;53.60;;;;;;5115824;28;20083;-77
2023/06/25 11:09:55;;;;;;;6.35;4.50;;;28.80;54.00;;;;;;5115808;28;20047;-76
2023/06/25 11:12:20;;;;;;;5.97;4.57;;;28.80;52.20;;;;;;5133846;28;20024;-76
2023/06/25 11:14:46;;;;;;;5.57;4.55;;;28.90;52.90;;;;;;5115913;28;20035;-77
2023/06/25 11:17:18;;;;;;;7.32;4.40;;;29.10;54.60;;;;;;5133778;28;20020;-77
2023/06/25 11:19:50;;;;;;;5.47;4.35;;;29.10;53.20;;;;;;5115697;28;20036;-77
2023/06/25 11:22:15;;;;;;;5.47;4.32;;;29.10;49.60;;;;;;5133814;28;20024;-76
2023/06/25 11:24:41;;;;;;;6.63;4.20;;;29.20;51.00;;;;;;5115696;28;20030;-77
2023/06/25 11:27:07;;;;;;;5.40;4.28;;;29.20;50.10;;;;;;5133682;28;20050;-76
2023/06/25 11:29:38;;;;;;;6.28;4.50;;;29.20;52.10;;;;;;5133651;28;20028;-76
2023/06/25 11:32:11;;;;;;;7.10;4.53;;;29.30;51.20;;;;;;5133667;28;20065;-77
2023/06/25 11:34:42;;;;;;;5.60;4.38;;;29.30;53.60;;;;;;5133568;28;20288;-77
2023/06/25 11:37:15;;;;;;;5.35;4.55;;;29.40;50.70;;;;;;5115698;28;20047;-77
2023/06/25 11:39:46;;;;;;;6.00;4.40;;;29.40;50.90;;;;;;5133658;28;20024;-77
2023/06/25 11:42:17;;;;;;;5.07;4.32;;;29.50;53.10;;;;;;5133761;28;20027;-77
2023/06/25 11:44:43;;;;;;;6.50;4.50;;;29.60;53.30;;;;;;5115599;28;20032;-77
2023/06/25 11:47:10;;;;;;;6.15;4.15;;;29.70;51.50;;;;;;5133508;28;20531;-77
2023/06/25 11:49:37;;;;;;;5.07;4.35;;;29.90;48.20;;;;;;5133500;28;20040;-77
2023/06/25 11:52:03;;;;;;;4.60;3.70;;;30.00;50.30;;;;;;5133436;28;20024;-77
2023/06/25 11:54:29;;;;;;;7.70;4.60;;;30.00;45.80;;;;;;5098369;28;20069;-77
2023/06/25 11:56:55;;;;;;;5.88;4.40;;;29.90;46.40;;;;;;5133581;28;20028;-77
2023/06/25 11:59:20;;;;;;;5.07;4.22;;;29.90;48.00;;;;;;5133541;28;20032;-77
2023/06/25 12:01:46;;;;;;;5.80;4.20;;;29.90;46.30;;;;;;5115501;28;20039;-77
2023/06/25 12:04:12;;;;;;;5.47;4.20;;;30.00;46.60;;;;;;5133307;28;20049;-77
2023/06/25 12:06:37;;;;;;;6.65;4.50;;;30.00;48.70;;;;;;5115362;28;20027;-78
2023/06/25 12:09:03;;;;;;;5.55;4.10;;;30.00;45.40;;;;;;5115363;28;20034;-77
2023/06/25 12:11:30;;;;;;;5.82;4.63;;;30.00;45.00;;;;;;5134134;28;20032;-77
2023/06/25 12:13:55;;;;;;;5.30;4.43;;;30.10;46.50;;;;;;5136923;28;20049;-77
2023/06/25 12:16:21;;;;;;;6.90;4.47;;;30.10;46.40;;;;;;5118831;28;20020;-76
2023/06/25 12:18:47;;;;;;;5.63;4.55;;;30.20;48.10;;;;;;5118848;28;20032;-77
2023/06/25 12:21:12;;;;;;;5.68;4.28;;;30.20;48.60;;;;;;5101865;28;20026;-77
2023/06/25 12:23:38;;;;;;;6.05;4.55;;;30.20;44.10;;;;;;5101848;28;20475;-76
2023/06/25 12:26:03;;;;;;;5.70;4.93;;;30.30;47.60;;;;;;5118527;28;20031;-77
2023/06/25 12:28:29;;;;;;;6.30;4.20;;;30.30;43.50;;;;;;5118749;28;20034;-77
2023/06/25 12:30:55;;;;;;;5.63;4.65;;;30.40;45.00;;;;;;5118495;28;20069;-77
2023/06/25 12:33:21;;;;;;;7.25;4.93;;;30.40;44.50;;;;;;5118445;28;20024;-77
2023/06/25 12:35:47;;;;;;;5.43;4.68;;;30.50;45.50;;;;;;5136432;28;20023;-77